NORTHERN NASSAU  -  Areal Flood Advisory Areal Flood Advisory     Flash Flood Watch Flash Flood Watch     Rip Current Statement Rip Current Statement        NORTHERN QUEENS  -  Areal Flood Advisory Areal Flood Advisory     Flash Flood Watch Flash Flood Watch     Rip Current Statement Rip Current Statement        SOUTHERN NASSAU  -  Areal Flood Advisory Areal Flood Advisory     Flash Flood Watch Flash Flood Watch     Rip Current Statement Rip Current Statement        SOUTHERN QUEENS  -  Areal Flood Advisory Areal Flood Advisory     Flash Flood Watch Flash Flood Watch     Rip Current Statement Rip Current Statement        NORTHEAST SUFFOLK  -  Rip Current Statement Rip Current Statement        NORTHWEST SUFFOLK  -  Rip Current Statement Rip Current Statement        SOUTHEAST SUFFOLK  -  Rip Current Statement Rip Current Statement        SOUTHWEST SUFFOLK  -  Rip Current Statement Rip Current Statement      

Active alerts

Northern Queens
  Details for Northern Queens Areal Flood Advisory  +2 additional alerts
Southern Queens
  Details for Southern Queens Areal Flood Advisory  +2 additional alerts
Northern Nassau
  Details for Northern Nassau Areal Flood Advisory  +2 additional alerts
Southern Nassau
  Details for Southern Nassau Areal Flood Advisory  +2 additional alerts
Northwest Suffolk
  Details for Northwest Suffolk Rip Current Statement
Southwest Suffolk
  Details for Southwest Suffolk Rip Current Statement
Northeast Suffolk
  Details for Northeast Suffolk Rip Current Statement
Southeast Suffolk
  Details for Southeast Suffolk Rip Current Statement


WXM80 ListenWXM80 Stop

You find our weather info also at:

UK Metoffice

WeatherCloud

Weather Underground

Northeastern Weather Network

AWEKAS

Citizen Weather Observer Program (CWOP)

HAMweather, WeatherForYou, PWS Weather


Weather Underground History page Text

Daily Summary for February 6, 2017 Units:  English    Metric   Both
« Previous Day
Next Day »
Daily Weekly Monthly Yearly Custom
  High: Low: Average:
Temperature: 44.7 °F 35.9 °F 40.1 °F
Dew Point: 35.2 °F 19.6 °F 26 °F
Humidity: 87 % 41 % 58 %
Wind Speed: 11.3 mph 0.0 mph 4.3 mph
Wind Gust: 22.0 mph - -
Wind:- - West
Pressure: 30.12 in 29.87 in -
Precipitation: 0.00 in    
Historical Graphs
 
 
Tabular Data for February 6, 2017
Time Temperature Dew Point Pressure Wind Wind Speed Wind Gust Humidity Rainfall Rate (Hourly)
00:00 42.6 °F 27.1 °F 29.87 in WNW 5.2 mph 9.2 mph 54 % 0.00 in
00:05 42.6 °F 27.1 °F 29.87 in WNW 7.6 mph 12.7 mph 54 % 0.00 in
00:10 42.5 °F 27.0 °F 29.87 in West 8.9 mph 9.2 mph 54 % 0.00 in
00:15 42.5 °F 27.0 °F 29.88 in WSW 6.6 mph 17.3 mph 54 % 0.00 in
00:20 42.4 °F 26.9 °F 29.88 in WSW 6.4 mph 10.4 mph 54 % 0.00 in
00:25 42.4 °F 26.9 °F 29.88 in WSW 6.5 mph 12.0 mph 54 % 0.00 in
00:30 42.3 °F 26.8 °F 29.88 in WNW 8.7 mph 12.7 mph 54 % 0.00 in
00:35 42.3 °F 26.8 °F 29.88 in WSW 6.9 mph 12.7 mph 54 % 0.00 in
00:40 42.2 °F 26.7 °F 29.88 in WSW 8.1 mph 16.1 mph 54 % 0.00 in
00:46 42.2 °F 27.2 °F 29.88 in West 2.8 mph 11.5 mph 55 % 0.00 in
00:52 42.0 °F 27.0 °F 29.88 in WNW 9.2 mph 11.5 mph 55 % 0.00 in
00:57 42.0 °F 27.0 °F 29.88 in North 4.0 mph 10.4 mph 55 % 0.00 in
01:02 41.9 °F 26.9 °F 29.88 in WSW 5.4 mph 11.0 mph 55 % 0.00 in
01:07 41.8 °F 27.2 °F 29.88 in West 3.4 mph 9.2 mph 56 % 0.00 in
01:12 41.7 °F 27.6 °F 29.88 in West 3.4 mph 15.0 mph 57 % 0.00 in
01:17 41.7 °F 27.6 °F 29.88 in NW 6.2 mph 10.4 mph 57 % 0.00 in
01:22 41.6 °F 27.5 °F 29.88 in South 4.6 mph 9.2 mph 57 % 0.00 in
01:27 41.5 °F 27.8 °F 29.89 in NW 3.7 mph 8.1 mph 58 % 0.00 in
01:32 41.4 °F 27.7 °F 29.89 in WNW 3.3 mph 9.2 mph 58 % 0.00 in
01:42 41.3 °F 27.2 °F 29.89 in West 3.5 mph 6.9 mph 57 % 0.00 in
01:47 41.3 °F 26.8 °F 29.89 in West 6.0 mph 11.5 mph 56 % 0.00 in
01:52 41.2 °F 27.1 °F 29.89 in West 3.8 mph 8.1 mph 57 % 0.00 in
01:57 41.1 °F 27.0 °F 29.90 in NNW 3.3 mph 6.9 mph 57 % 0.00 in
02:02 41.1 °F 27.0 °F 29.90 in WSW 7.8 mph 13.8 mph 57 % 0.00 in
02:07 41.0 °F 26.9 °F 29.90 in WNW 7.1 mph 14.0 mph 57 % 0.00 in
02:12 40.9 °F 26.8 °F 29.90 in WNW 7.9 mph 11.5 mph 57 % 0.00 in
02:17 40.9 °F 26.4 °F 29.90 in West 9.3 mph 18.4 mph 56 % 0.00 in
02:22 40.8 °F 26.3 °F 29.91 in WNW 9.0 mph 13.8 mph 56 % 0.00 in
02:27 40.7 °F 26.2 °F 29.91 in West 9.6 mph 15.0 mph 56 % 0.00 in
02:32 40.6 °F 26.1 °F 29.92 in West 9.3 mph 19.6 mph 56 % 0.00 in
02:37 40.5 °F 26.0 °F 29.92 in NW 9.7 mph 14.0 mph 56 % 0.00 in
02:42 40.4 °F 25.5 °F 29.92 in WNW 10.1 mph 12.7 mph 55 % 0.00 in
02:47 40.4 °F 25.5 °F 29.92 in WNW 8.7 mph 13.8 mph 55 % 0.00 in
02:52 40.2 °F 24.9 °F 29.92 in NW 11.3 mph 22.0 mph 54 % 0.00 in
02:57 40.1 °F 24.8 °F 29.92 in NW 7.5 mph 16.1 mph 54 % 0.00 in
03:03 40.0 °F 25.1 °F 29.93 in WNW 3.1 mph 10.4 mph 55 % 0.00 in
03:08 39.9 °F 25.5 °F 29.94 in WSW 9.7 mph 19.6 mph 56 % 0.00 in
03:13 39.8 °F 25.4 °F 29.94 in WNW 5.6 mph 16.1 mph 56 % 0.00 in
03:18 39.7 °F 24.4 °F 29.95 in NNE 11.1 mph 19.6 mph 54 % 0.00 in
03:23 39.6 °F 24.3 °F 29.95 in WNW 6.7 mph 15.0 mph 54 % 0.00 in
03:28 39.5 °F 23.8 °F 29.96 in WNW 8.9 mph 17.3 mph 53 % 0.00 in
03:33 39.5 °F 23.8 °F 29.96 in West 9.1 mph 17.0 mph 53 % 0.00 in
03:38 39.4 °F 23.2 °F 29.96 in WNW 9.8 mph 18.4 mph 52 % 0.00 in
03:43 39.3 °F 23.6 °F 29.96 in WNW 6.3 mph 17.3 mph 53 % 0.00 in
03:48 39.2 °F 23.5 °F 29.96 in WNW 8.7 mph 19.6 mph 53 % 0.00 in
03:53 39.2 °F 23.0 °F 29.96 in NW 6.6 mph 15.0 mph 52 % 0.00 in
03:58 39.2 °F 23.0 °F 29.97 in West 5.2 mph 13.8 mph 52 % 0.00 in
04:03 39.2 °F 23.5 °F 29.96 in WNW 6.0 mph 9.2 mph 53 % 0.00 in
04:08 39.2 °F 23.0 °F 29.96 in NW 7.5 mph 13.0 mph 52 % 0.00 in
04:13 39.2 °F 23.5 °F 29.97 in WNW 3.4 mph 8.1 mph 53 % 0.00 in
04:18 39.2 °F 23.5 °F 29.97 in West 4.4 mph 10.4 mph 53 % 0.00 in
04:23 39.2 °F 23.9 °F 29.97 in West 6.8 mph 12.0 mph 54 % 0.00 in
04:28 39.1 °F 23.4 °F 29.97 in West 6.6 mph 18.4 mph 53 % 0.00 in
04:33 39.2 °F 23.9 °F 29.97 in West 3.9 mph 10.4 mph 54 % 0.00 in
04:38 39.1 °F 23.8 °F 29.97 in WNW 6.4 mph 15.0 mph 54 % 0.00 in
04:43 39.1 °F 24.3 °F 29.97 in NW 5.4 mph 11.5 mph 55 % 0.00 in
04:48 39.0 °F 24.2 °F 29.97 in WNW 5.0 mph 14.0 mph 55 % 0.00 in
04:53 38.9 °F 24.1 °F 29.98 in WNW 4.8 mph 11.5 mph 55 % 0.00 in
04:58 38.9 °F 24.5 °F 29.98 in NW 5.8 mph 10.4 mph 56 % 0.00 in
05:03 38.8 °F 24.4 °F 29.98 in West 3.7 mph 12.7 mph 56 % 0.00 in
05:08 38.8 °F 24.4 °F 29.98 in WNW 4.7 mph 7.0 mph 56 % 0.00 in
05:13 38.7 °F 24.3 °F 29.98 in WSW 5.9 mph 9.2 mph 56 % 0.00 in
05:19 38.7 °F 24.3 °F 29.98 in West 6.2 mph 13.8 mph 56 % 0.00 in
05:24 38.6 °F 24.2 °F 29.98 in West 6.9 mph 11.5 mph 56 % 0.00 in
05:29 38.5 °F 24.6 °F 29.99 in WSW 5.0 mph 10.4 mph 57 % 0.00 in
05:34 38.4 °F 24.5 °F 29.99 in NW 5.0 mph 8.1 mph 57 % 0.00 in
05:39 38.3 °F 24.4 °F 29.99 in West 7.2 mph 11.5 mph 57 % 0.00 in
05:44 38.3 °F 24.8 °F 30.00 in West 6.9 mph 11.5 mph 58 % 0.00 in
05:49 38.2 °F 24.7 °F 30.00 in WNW 7.9 mph 11.5 mph 58 % 0.00 in
05:54 38.2 °F 25.5 °F 30.01 in NNW 3.4 mph 11.0 mph 60 % 0.00 in
05:59 38.1 °F 26.6 °F 30.01 in NW 7.4 mph 11.5 mph 63 % 0.00 in
06:04 38.0 °F 26.1 °F 30.02 in WNW 7.7 mph 12.7 mph 62 % 0.00 in
06:09 37.9 °F 26.4 °F 30.02 in NW 5.4 mph 11.5 mph 63 % 0.00 in
06:14 37.8 °F 26.7 °F 30.03 in NNW 3.8 mph 6.9 mph 64 % 0.00 in
06:19 37.8 °F 27.1 °F 30.03 in NW 5.7 mph 9.2 mph 65 % 0.00 in
06:24 37.7 °F 27.0 °F 30.03 in WNW 6.6 mph 11.5 mph 65 % 0.00 in
06:29 37.5 °F 26.4 °F 30.03 in NW 7.2 mph 13.8 mph 64 % 0.00 in
06:34 37.4 °F 25.9 °F 30.03 in WNW 8.8 mph 16.1 mph 63 % 0.00 in
06:39 37.2 °F 24.2 °F 30.03 in WNW 10.3 mph 16.1 mph 59 % 0.00 in
06:44 37.1 °F 23.7 °F 30.03 in WSW 6.8 mph 13.8 mph 58 % 0.00 in
06:49 37.0 °F 23.6 °F 30.04 in NW 10.0 mph 10.4 mph 58 % 0.00 in
06:54 36.8 °F 21.7 °F 30.04 in West 9.9 mph 18.4 mph 54 % 0.00 in
06:59 36.6 °F 21.5 °F 30.04 in NNW 6.8 mph 16.1 mph 54 % 0.00 in
07:04 36.4 °F 21.3 °F 30.05 in WNW 6.0 mph 12.0 mph 54 % 0.00 in
07:09 36.3 °F 21.7 °F 30.05 in NW 5.7 mph 10.4 mph 55 % 0.00 in
07:14 36.2 °F 21.1 °F 30.05 in NW 6.5 mph 13.0 mph 54 % 0.00 in
07:20 36.1 °F 21.5 °F 30.05 in WNW 4.8 mph 11.0 mph 55 % 0.00 in
07:25 36.0 °F 20.9 °F 30.04 in NW 5.0 mph 11.5 mph 54 % 0.00 in
07:30 36.0 °F 21.4 °F 30.05 in NW 5.9 mph 11.5 mph 55 % 0.00 in
07:35 35.9 °F 20.9 °F 30.05 in WNW 4.9 mph 9.2 mph 54 % 0.00 in
07:40 35.9 °F 20.9 °F 30.06 in West 3.9 mph 9.2 mph 54 % 0.00 in
07:45 35.9 °F 20.9 °F 30.06 in WNW 3.7 mph 8.1 mph 54 % 0.00 in
07:50 35.9 °F 20.9 °F 30.07 in NW 7.3 mph 11.5 mph 54 % 0.00 in
07:55 35.9 °F 20.4 °F 30.07 in West 4.9 mph 11.5 mph 53 % 0.00 in
08:00 36.0 °F 20.5 °F 30.07 in WNW 3.4 mph 11.5 mph 53 % 0.00 in
08:05 36.0 °F 20.5 °F 30.07 in WNW 4.0 mph 9.0 mph 53 % 0.00 in
08:10 36.1 °F 20.2 °F 30.08 in West 4.9 mph 8.1 mph 52 % 0.00 in
08:15 36.2 °F 20.2 °F 30.08 in West 5.6 mph 8.1 mph 52 % 0.00 in
08:20 36.4 °F 20.4 °F 30.08 in WSW 5.3 mph 9.2 mph 52 % 0.00 in
08:25 36.6 °F 20.6 °F 30.08 in WNW 4.0 mph 8.1 mph 52 % 0.00 in
08:30 36.7 °F 20.3 °F 30.08 in West 6.0 mph 12.0 mph 51 % 0.00 in
08:35 36.8 °F 19.9 °F 30.08 in West 3.3 mph 11.5 mph 50 % 0.00 in
08:40 36.9 °F 20.0 °F 30.08 in NW 6.8 mph 10.4 mph 50 % 0.00 in
08:45 37.1 °F 20.2 °F 30.09 in WNW 3.5 mph 8.1 mph 50 % 0.00 in
08:50 37.3 °F 20.3 °F 30.10 in West 6.6 mph 11.5 mph 50 % 0.00 in
08:55 37.5 °F 19.6 °F 30.11 in WNW 10.9 mph 19.6 mph 48 % 0.00 in
09:00 37.7 °F 20.2 °F 30.11 in West 7.4 mph 11.0 mph 49 % 0.00 in
09:05 38.0 °F 20.0 °F 30.11 in WNW 9.1 mph 12.7 mph 48 % 0.00 in
09:10 38.1 °F 20.1 °F 30.11 in West 6.7 mph 18.4 mph 48 % 0.00 in
09:15 38.2 °F 20.7 °F 30.11 in NW 9.1 mph 16.1 mph 49 % 0.00 in
09:21 38.4 °F 20.4 °F 30.11 in WNW 10.8 mph 19.6 mph 48 % 0.00 in
09:26 38.4 °F 20.4 °F 30.11 in NW 7.5 mph 18.4 mph 48 % 0.00 in
09:31 38.4 °F 20.9 °F 30.11 in WNW 8.9 mph 12.7 mph 49 % 0.00 in
09:36 38.5 °F 21.0 °F 30.11 in NW 7.0 mph 17.3 mph 49 % 0.00 in
09:41 38.7 °F 20.7 °F 30.11 in NW 7.3 mph 15.0 mph 48 % 0.00 in
09:46 38.9 °F 20.9 °F 30.11 in West 8.1 mph 11.5 mph 48 % 0.00 in
09:51 39.3 °F 21.7 °F 30.11 in NW 4.3 mph 10.4 mph 49 % 0.00 in
09:56 39.6 °F 20.5 °F 30.11 in WNW 4.5 mph 12.7 mph 46 % 0.00 in
10:01 39.9 °F 20.8 °F 30.11 in West 6.7 mph 15.0 mph 46 % 0.00 in
10:06 40.1 °F 21.0 °F 30.12 in NW 8.2 mph 12.7 mph 46 % 0.00 in
10:11 40.2 °F 21.0 °F 30.11 in WNW 6.2 mph 11.5 mph 46 % 0.00 in
10:16 40.2 °F 21.0 °F 30.12 in NNW 4.3 mph 11.5 mph 46 % 0.00 in
10:18 40.4 °F 21.7 °F 30.11 in WNW 3.6 mph 8.1 mph 47 % 0.00 in
10:23 40.7 °F 21.5 °F 30.12 in West 6.6 mph 11.5 mph 46 % 0.00 in
10:28 40.9 °F 21.7 °F 30.12 in NNW 3.4 mph 9.2 mph 46 % 0.00 in
10:33 41.1 °F 21.9 °F 30.12 in NW 8.6 mph 17.3 mph 46 % 0.00 in
10:38 41.1 °F 21.9 °F 30.12 in NW 5.5 mph 12.0 mph 46 % 0.00 in
10:43 41.2 °F 22.0 °F 30.12 in WNW 7.5 mph 11.5 mph 46 % 0.00 in
10:48 41.4 °F 22.1 °F 30.12 in West 6.9 mph 12.0 mph 46 % 0.00 in
10:53 41.5 °F 21.7 °F 30.11 in WNW 5.9 mph 12.0 mph 45 % 0.00 in
10:58 41.5 °F 21.7 °F 30.11 in WSW 7.3 mph 13.8 mph 45 % 0.00 in
11:03 41.6 °F 21.8 °F 30.12 in NNW 5.0 mph 10.4 mph 45 % 0.00 in
11:08 41.5 °F 21.7 °F 30.12 in SW 5.5 mph 11.0 mph 45 % 0.00 in
11:13 41.4 °F 21.1 °F 30.11 in WSW 7.5 mph 13.8 mph 44 % 0.00 in
11:18 41.5 °F 22.2 °F 30.11 in NW 3.3 mph 5.0 mph 46 % 0.00 in
11:23 41.8 °F 23.0 °F 30.11 in WNW 5.0 mph 12.0 mph 47 % 0.00 in
11:28 42.0 °F 22.2 °F 30.11 in NW 7.0 mph 13.0 mph 45 % 0.00 in
11:33 42.0 °F 21.6 °F 30.11 in NNW 3.7 mph 9.2 mph 44 % 0.00 in
11:38 42.2 °F 22.3 °F 30.10 in NW 6.0 mph 12.0 mph 45 % 0.00 in
11:43 42.1 °F 21.7 °F 30.10 in WNW 7.0 mph 16.0 mph 44 % 0.00 in
11:48 41.9 °F 21.0 °F 30.11 in WNW 5.0 mph 12.0 mph 43 % 0.00 in
11:53 41.8 °F 22.5 °F 30.10 in West 5.3 mph 9.2 mph 46 % 0.00 in
11:58 41.8 °F 23.0 °F 30.10 in WNW 5.5 mph 11.0 mph 47 % 0.00 in
12:03 41.7 °F 21.9 °F 30.10 in NW 5.0 mph 12.0 mph 45 % 0.00 in
12:08 41.8 °F 22.0 °F 30.09 in NW 5.0 mph 9.0 mph 45 % 0.00 in
12:13 41.9 °F 22.1 °F 30.09 in NW 6.0 mph 13.0 mph 45 % 0.00 in
12:18 41.9 °F 21.0 °F 30.09 in WNW 7.0 mph 12.0 mph 43 % 0.00 in
12:23 42.0 °F 22.2 °F 30.08 in WNW 6.0 mph 10.0 mph 45 % 0.00 in
12:28 42.2 °F 22.9 °F 30.08 in NW 3.0 mph 12.0 mph 46 % 0.00 in
12:33 42.4 °F 23.1 °F 30.08 in NW 6.0 mph 9.0 mph 46 % 0.00 in
12:38 42.6 °F 23.2 °F 30.08 in WNW 2.0 mph 7.0 mph 46 % 0.00 in
12:43 42.8 °F 23.4 °F 30.08 in WNW 6.0 mph 12.0 mph 46 % 0.00 in
12:48 42.7 °F 22.3 °F 30.08 in WNW 7.0 mph 12.0 mph 44 % 0.00 in
12:53 42.7 °F 22.8 °F 30.08 in WNW 3.0 mph 12.0 mph 45 % 0.00 in
12:58 42.8 °F 22.9 °F 30.08 in NNW 3.3 mph 7.0 mph 45 % 0.00 in
13:03 43.1 °F 23.2 °F 30.08 in NW 5.0 mph 9.0 mph 45 % 0.00 in
13:08 43.3 °F 23.4 °F 30.08 in NW 5.0 mph 7.0 mph 45 % 0.00 in
13:13 43.5 °F 23.6 °F 30.08 in NW 5.0 mph 7.0 mph 45 % 0.00 in
13:18 43.6 °F 23.6 °F 30.07 in NW 5.0 mph 8.0 mph 45 % 0.00 in
13:23 43.8 °F 22.2 °F 30.08 in NW 7.0 mph 12.0 mph 42 % 0.00 in
13:28 43.7 °F 22.1 °F 30.07 in WNW 6.0 mph 9.0 mph 42 % 0.00 in
13:33 43.6 °F 22.0 °F 30.07 in WNW 5.0 mph 10.0 mph 42 % 0.00 in
13:38 43.4 °F 21.8 °F 30.07 in WNW 1.0 mph 8.0 mph 42 % 0.00 in
13:43 43.4 °F 22.3 °F 30.07 in WNW 3.0 mph 9.0 mph 43 % 0.00 in
13:48 43.6 °F 22.5 °F 30.07 in WNW 2.0 mph 9.0 mph 43 % 0.00 in
13:53 43.7 °F 22.1 °F 30.07 in WNW 6.0 mph 12.0 mph 42 % 0.00 in
13:58 44.0 °F 22.4 °F 30.07 in WNW 2.4 mph 6.0 mph 42 % 0.00 in
14:03 44.0 °F 21.8 °F 30.06 in NW 4.2 mph 8.1 mph 41 % 0.00 in
14:08 44.1 °F 21.9 °F 30.05 in SW 3.7 mph 6.9 mph 41 % 0.00 in
14:13 44.2 °F 22.0 °F 30.06 in WNW 1.7 mph 5.8 mph 41 % 0.00 in
14:19 44.3 °F 22.6 °F 30.06 in SW 3.5 mph 5.0 mph 42 % 0.00 in
14:24 44.5 °F 22.2 °F 30.06 in West 3.1 mph 5.8 mph 41 % 0.00 in
14:29 44.6 °F 22.9 °F 30.05 in SW 3.2 mph 3.5 mph 42 % 0.00 in
14:34 44.7 °F 22.4 °F 30.05 in West 0.3 mph 3.5 mph 41 % 0.00 in
14:39 44.5 °F 22.2 °F 30.06 in WSW 3.9 mph 5.8 mph 41 % 0.00 in
14:44 44.4 °F 22.7 °F 30.06 in West 2.9 mph 6.9 mph 42 % 0.00 in
14:49 44.3 °F 22.6 °F 30.06 in WSW 1.5 mph 4.6 mph 42 % 0.00 in
14:54 44.1 °F 22.4 °F 30.06 in West 1.4 mph 3.5 mph 42 % 0.00 in
14:59 44.0 °F 22.9 °F 30.06 in WNW 0.7 mph 2.3 mph 43 % 0.00 in
15:04 43.9 °F 22.8 °F 30.06 in NW 1.1 mph 3.0 mph 43 % 0.00 in
15:09 43.6 °F 24.2 °F 30.05 in North 1.8 mph 3.5 mph 46 % 0.00 in
15:14 43.5 °F 24.1 °F 30.05 in North 2.5 mph 5.0 mph 46 % 0.00 in
15:19 43.4 °F 23.4 °F 30.05 in NNW 2.0 mph 2.3 mph 45 % 0.00 in
15:24 43.3 °F 23.4 °F 30.05 in NNW 1.6 mph 3.5 mph 45 % 0.00 in
15:29 43.3 °F 23.4 °F 30.05 in Calm   3.5 mph 45 % 0.00 in
15:34 43.2 °F 23.3 °F 30.05 in WNW 2.1 mph 2.3 mph 45 % 0.00 in
15:39 43.2 °F 23.3 °F 30.04 in WNW 1.9 mph 3.5 mph 45 % 0.00 in
15:44 43.3 °F 23.4 °F 30.04 in SW 2.0 mph 3.5 mph 45 % 0.00 in
15:49 43.3 °F 22.8 °F 30.04 in WSW 2.2 mph 4.0 mph 44 % 0.00 in
15:54 43.4 °F 23.4 °F 30.04 in WSW 2.2 mph 3.5 mph 45 % 0.00 in
15:59 43.5 °F 23.5 °F 30.05 in Calm   3.5 mph 45 % 0.00 in
16:04 43.6 °F 24.2 °F 30.04 in NW 0.3 mph 1.2 mph 46 % 0.00 in
16:09 43.6 °F 23.6 °F 30.04 in Calm   1.2 mph 45 % 0.00 in
16:14 43.7 °F 23.7 °F 30.05 in WNW 1.7 mph 3.5 mph 45 % 0.00 in
16:19 43.7 °F 23.7 °F 30.05 in WNW 1.9 mph 3.5 mph 45 % 0.00 in
16:25 43.7 °F 24.2 °F 30.05 in Calm     46 % 0.00 in
16:30 43.6 °F 25.7 °F 30.04 in WNW 0.1 mph 1.2 mph 49 % 0.00 in
16:35 43.5 °F 25.1 °F 30.04 in Calm     48 % 0.00 in
16:40 43.3 °F 25.4 °F 30.04 in Calm     49 % 0.00 in
16:45 43.2 °F 26.3 °F 30.04 in WNW 0.3 mph 1.2 mph 51 % 0.00 in
16:50 42.9 °F 25.5 °F 30.04 in Calm     50 % 0.00 in
16:55 42.7 °F 25.3 °F 30.04 in Calm     50 % 0.00 in
17:00 42.5 °F 25.1 °F 30.04 in Calm     50 % 0.00 in
17:05 42.3 °F 25.0 °F 30.04 in Calm     50 % 0.00 in
17:10 42.1 °F 24.8 °F 30.04 in Calm     50 % 0.00 in
17:15 41.9 °F 24.6 °F 30.04 in Calm     50 % 0.00 in
17:20 41.7 °F 24.4 °F 30.04 in Calm     50 % 0.00 in
17:30 41.1 °F 25.3 °F 30.04 in SW 1.9 mph 3.5 mph 53 % 0.00 in
17:35 40.6 °F 26.5 °F 30.04 in SSW 3.6 mph 6.9 mph 57 % 0.00 in
17:40 40.3 °F 28.7 °F 30.05 in SSW 7.2 mph 10.4 mph 63 % 0.00 in
17:43 40.3 °F 29.1 °F 30.06 in SSE 4.5 mph 8.1 mph 64 % 0.00 in
17:48 40.3 °F 29.5 °F 30.06 in South 4.3 mph 9.0 mph 65 % 0.00 in
17:53 40.3 °F 29.5 °F 30.06 in SSW 3.1 mph 4.6 mph 65 % 0.00 in
17:58 40.2 °F 29.4 °F 30.06 in SSW 2.4 mph 5.8 mph 65 % 0.00 in
18:03 40.1 °F 29.3 °F 30.06 in South 2.4 mph 5.0 mph 65 % 0.00 in
18:08 40.1 °F 29.3 °F 30.06 in SSW 1.5 mph 3.5 mph 65 % 0.00 in
18:13 40.0 °F 29.6 °F 30.06 in South 2.5 mph 4.6 mph 66 % 0.00 in
18:18 39.9 °F 29.5 °F 30.05 in South 2.7 mph 6.0 mph 66 % 0.00 in
18:23 39.8 °F 29.4 °F 30.05 in SSW 0.7 mph 3.5 mph 66 % 0.00 in
18:28 39.7 °F 29.6 °F 30.06 in SE 1.3 mph 3.5 mph 67 % 0.00 in
18:33 39.5 °F 29.8 °F 30.05 in South 1.1 mph 5.8 mph 68 % 0.00 in
18:38 39.4 °F 30.1 °F 30.05 in South 0.8 mph 2.3 mph 69 % 0.00 in
18:43 39.3 °F 30.0 °F 30.05 in South 2.9 mph 4.6 mph 69 % 0.00 in
18:48 39.2 °F 30.2 °F 30.06 in SE 0.9 mph 3.5 mph 70 % 0.00 in
18:53 39.1 °F 30.1 °F 30.06 in SSW 1.3 mph 4.6 mph 70 % 0.00 in
18:58 39.0 °F 30.0 °F 30.06 in SSW 2.4 mph 4.0 mph 70 % 0.00 in
19:00 38.9 °F 29.9 °F 30.06 in SSW 1.5 mph 4.6 mph 70 % 0.00 in
19:06 38.8 °F 30.2 °F 30.06 in SSW 1.1 mph 4.6 mph 71 % 0.00 in
19:11 38.7 °F 30.1 °F 30.06 in SSW 1.5 mph 3.5 mph 71 % 0.00 in
19:16 38.6 °F 30.0 °F 30.06 in South 1.8 mph 3.5 mph 71 % 0.00 in
19:21 38.5 °F 30.3 °F 30.06 in SSE 0.7 mph 3.5 mph 72 % 0.00 in
19:26 38.4 °F 30.5 °F 30.06 in South 1.0 mph 3.5 mph 73 % 0.00 in
19:31 38.3 °F 30.4 °F 30.06 in South 2.9 mph 6.9 mph 73 % 0.00 in
19:36 38.2 °F 30.6 °F 30.05 in SSE 2.0 mph 4.6 mph 74 % 0.00 in
19:41 38.2 °F 31.0 °F 30.06 in South 1.6 mph 4.6 mph 75 % 0.00 in
19:46 38.1 °F 31.2 °F 30.05 in South 2.2 mph 4.6 mph 76 % 0.00 in
19:51 38.1 °F 31.2 °F 30.05 in SSW 1.1 mph 3.5 mph 76 % 0.00 in
19:56 38.1 °F 31.5 °F 30.05 in South 2.6 mph 4.6 mph 77 % 0.00 in
20:01 38.1 °F 31.5 °F 30.05 in South 3.6 mph 4.6 mph 77 % 0.00 in
20:06 38.1 °F 31.8 °F 30.04 in South 4.2 mph 6.9 mph 78 % 0.00 in
20:11 38.1 °F 31.8 °F 30.04 in South 3.0 mph 5.8 mph 78 % 0.00 in
20:16 38.1 °F 32.2 °F 30.04 in South 4.0 mph 6.9 mph 79 % 0.00 in
20:21 38.1 °F 32.5 °F 30.04 in South 5.8 mph 9.2 mph 80 % 0.00 in
20:24 38.2 °F 32.6 °F 30.04 in SSW 1.9 mph 6.9 mph 80 % 0.00 in
20:29 38.3 °F 33.0 °F 30.04 in South 2.5 mph 6.9 mph 81 % 0.00 in
20:35 38.3 °F 33.0 °F 30.04 in SSE 2.3 mph 6.9 mph 81 % 0.00 in
20:40 38.4 °F 33.1 °F 30.04 in SSE 3.7 mph 5.8 mph 81 % 0.00 in
20:45 38.5 °F 33.5 °F 30.04 in South 1.4 mph 3.5 mph 82 % 0.00 in
20:50 38.5 °F 33.5 °F 30.03 in South 2.8 mph 5.8 mph 82 % 0.00 in
20:55 38.6 °F 33.9 °F 30.03 in SSW 2.5 mph 5.0 mph 83 % 0.00 in
21:00 38.6 °F 33.9 °F 30.03 in South 1.5 mph 3.0 mph 83 % 0.00 in
21:05 38.6 °F 33.9 °F 30.03 in South 2.8 mph 4.6 mph 83 % 0.00 in
21:10 38.6 °F 33.9 °F 30.03 in South 2.9 mph 5.8 mph 83 % 0.00 in
21:15 38.6 °F 33.9 °F 30.02 in South 2.2 mph 3.5 mph 83 % 0.00 in
21:20 38.6 °F 34.2 °F 30.02 in South 3.4 mph 5.0 mph 84 % 0.00 in
21:25 38.6 °F 34.2 °F 30.02 in South 2.4 mph 6.0 mph 84 % 0.00 in
21:30 38.7 °F 34.3 °F 30.02 in South 3.8 mph 6.9 mph 84 % 0.00 in
21:35 38.6 °F 34.5 °F 30.02 in SSW 3.2 mph 6.9 mph 85 % 0.00 in
21:40 38.7 °F 34.6 °F 30.02 in South 3.9 mph 5.8 mph 85 % 0.00 in
21:45 38.7 °F 34.6 °F 30.02 in South 4.5 mph 5.8 mph 85 % 0.00 in
21:50 38.7 °F 34.9 °F 30.02 in SSW 1.4 mph 4.6 mph 86 % 0.00 in
21:55 38.8 °F 35.0 °F 30.02 in South 4.2 mph 8.1 mph 86 % 0.00 in
22:00 38.8 °F 35.0 °F 30.02 in South 2.8 mph 6.9 mph 86 % 0.00 in
22:05 38.8 °F 35.0 °F 30.01 in SSW 4.0 mph 5.8 mph 86 % 0.00 in
22:10 38.7 °F 34.9 °F 30.01 in South 2.9 mph 5.8 mph 86 % 0.00 in
22:15 38.7 °F 35.2 °F 30.01 in South 4.1 mph 4.6 mph 87 % 0.00 in
22:20 38.7 °F 35.2 °F 30.01 in South 2.3 mph 3.5 mph 87 % 0.00 in
22:26 38.7 °F 35.2 °F 30.01 in South 2.2 mph 3.5 mph 87 % 0.00 in
22:31 38.6 °F 35.1 °F 30.01 in South 2.0 mph 4.6 mph 87 % 0.00 in
22:36 38.6 °F 35.1 °F 30.01 in SW 1.2 mph 3.5 mph 87 % 0.00 in
22:41 38.6 °F 35.1 °F 30.01 in SW 1.3 mph 3.5 mph 87 % 0.00 in
22:46 38.5 °F 35.0 °F 30.01 in SW 1.0 mph 2.3 mph 87 % 0.00 in
22:51 38.5 °F 35.0 °F 30.01 in SSW 2.2 mph 3.5 mph 87 % 0.00 in
22:56 38.4 °F 34.9 °F 30.01 in SW 0.6 mph 1.2 mph 87 % 0.00 in
23:01 38.4 °F 34.6 °F 30.00 in SSW 0.6 mph 1.2 mph 86 % 0.00 in
23:06 38.4 °F 34.6 °F 30.00 in Calm   2.3 mph 86 % 0.00 in
23:11 38.4 °F 34.6 °F 30.00 in SSW 0.6 mph 1.2 mph 86 % 0.00 in
23:16 38.4 °F 34.6 °F 30.00 in SSW 0.3 mph 1.2 mph 86 % 0.00 in
23:21 38.4 °F 34.6 °F 30.00 in SSW 0.3 mph 2.0 mph 86 % 0.00 in
23:26 38.4 °F 34.6 °F 30.00 in Calm   1.2 mph 86 % 0.00 in
23:28 38.3 °F 34.5 °F 30.00 in SSW 0.1 mph 1.2 mph 86 % 0.00 in
23:33 38.3 °F 34.5 °F 30.00 in Calm     86 % 0.00 in
23:38 38.2 °F 34.4 °F 30.00 in SSW 0.3 mph 1.2 mph 86 % 0.00 in
23:43 38.2 °F 34.4 °F 30.00 in SSW 0.1 mph 1.2 mph 86 % 0.00 in
23:48 38.1 °F 34.3 °F 30.00 in SSW 0.7 mph 1.2 mph 86 % 0.00 in
23:53 38.0 °F 34.2 °F 30.00 in Calm     86 % 0.00 in
23:58 37.9 °F 34.1 °F 30.00 in Calm     86 % 0.00 in
Crab Meadow Weather
Compliments of Weather Underground - 3 mb

Script developed by  Jim McMurry - jmcmurry@mwt.net Adapted for the template by  Wim van der Kuil - Leuven-Template.eu

Weather Terms: Downburst - A strong downdraft from a thunderstorm resulting in an outward burst of damaging winds on or near the ground. Downburst winds are often 50 to 100 mph and in a few cases, 100 to 150 mph. They can do as much damage as a small tornado.